Ευχαριστούμε που συμβάλλετε στη διατήρηση της σελίδας μας.

Thank you for your donations, it really helps to maintain the page.


Στατιστικά Καιρού & Άλλα..









Δείκτης Πυρκαγιάς (FWI)

Καστελόκαμπος Ρίον more information Kastelokampos Rion


Κάμερα Ρομανού more information Romanos Cam


Ραντάρ Κεραυνών more information blitzortung!


Ραντάρ Βροχής more information rain snow radar


Επισκεφθείτε άλλες ιστοσελίδες καιρού μας:

Meteopatras.Eu in
Euweather NetworkMeteopatras.Eu in Euweather Network

Weather CloudWeather Cloud

PWS WeatherPWS Weather

Awekas NetWeather data from station Patra-Ketx

WunderGroundWeather data from station Patra-Ketx




Ιδιοκτησία και Επίβλεψη : Μουλάς Αντρέας

 Πάτρα, Ελλάδα - Γ.Πλάτος : 38°14'21" Β - Γ.Μήκος : 21°45'5" Α - Υψόμετρο : 56μ

Κοντινές Αναφορές METAR

   
LGRX - Araxos
Ενημερώθηκε: 20-02-2019 08:50
Μερικώς Νεφελώδης  
Μερικώς Νεφελώδης  
   Άνεμος: Άπνοια
Άνεμος: Άπνοια
Θερμοκρασία: 10°C
Σημείο Δρόσου: 9°C
Υγρασία: 94%
Βαρόμετρο: 1022 hPa
Σύννεφα: Μερικώς Νεφελώδης
Ορατότητα: More than 10 km
Λεπτομέρειες Σύννεφου: Μερικώς Νεφελώδης 2500 ft
LGRX 200650Z 00000KT 9999 SCT025 10/09 Q1022
LGAD - Andravida
Ενημερώθηκε: 20-02-2019 08:50
Κυρίως Συννεφιά  
Κυρίως Συννεφιά  
   Άνεμος: Άπνοια
Άνεμος: Άπνοια
Θερμοκρασία: 9°C
Σημείο Δρόσου: 8°C
Υγρασία: 94%
Βαρόμετρο: 1022 hPa
Σύννεφα: Κυρίως Συννεφιά
Ορατότητα: More than 10 km
Λεπτομέρειες Σύννεφου: Κυρίως Αίθριος 1800 ft,
Κυρίως Συννεφιά 2500 ft
LGAD 200650Z 00000KT 9999 FEW018 BKN025 09/08 Q1022
LGZA - Zakinthos
Ενημερώθηκε: 20-02-2019 08:50
Μερικώς Νεφελώδης  
Μερικώς Νεφελώδης  
   Άνεμος: Άπνοια
Άνεμος: Άπνοια
Θερμοκρασία: 7°C
Σημείο Δρόσου: 5°C
Υγρασία: 87%
Βαρόμετρο: 1022 hPa
Σύννεφα: Μερικώς Νεφελώδης
Ορατότητα: More than 10 km
Λεπτομέρειες Σύννεφου: Μερικώς Νεφελώδης 2500 ft
LGZA 200650Z 00000KT 9999 SCT025 07/05 Q1022
LGKF - Kefallinia
Ενημερώθηκε: 20-02-2019 08:50
Κυρίως Αίθριος  
Κυρίως Αίθριος  
   Άνεμος: Άπνοια
Άνεμος: Άπνοια
Θερμοκρασία: 10°C
Σημείο Δρόσου: 8°C
Υγρασία: 88%
Βαρόμετρο: 1022 hPa
Σύννεφα: Κυρίως Αίθριος
Ορατότητα: More than 10 km
Λεπτομέρειες Σύννεφου: Κυρίως Αίθριος 1600 ft
LGKF 200650Z 00000KT 9999 FEW016 10/08 Q1022
LGPZ - Preveza
Ενημερώθηκε: 20-02-2019 08:50
Κυρίως Αίθριος  
Κυρίως Αίθριος  
   Άνεμος: ΒΑ 11.1 km/h
Άνεμος: ΒΑ 11.1 km/h
Θερμοκρασία: 10°C
Δείκτης Ψυχρότητας: 8°C
Σημείο Δρόσου: 8°C
Υγρασία: 88%
Βαρόμετρο: 1023 hPa
Σύννεφα: Κυρίως Αίθριος
Ορατότητα: More than 10 km
Λεπτομέρειες Σύννεφου: Κυρίως Αίθριος 3000 ft
LGPZ 200650Z 04006KT 9999 FEW030 10/08 Q1023
LGKL - Kalamata
Ενημερώθηκε: 20-02-2019 08:50
Ομίχλη, Κυρίως Αίθριος  
Ομίχλη, Κυρίως Αίθριος  
   Άνεμος: Βοράς 11.1 km/h
Άνεμος: Βοράς 11.1 km/h
Θερμοκρασία: 9°C
Δείκτης Ψυχρότητας: 7°C
Σημείο Δρόσου: 7°C
Υγρασία: 87%
Βαρόμετρο: 1022 hPa
Σύννεφα: Κυρίως Αίθριος
Ορατότητα: 8 km
Λεπτομέρειες Σύννεφου: Κυρίως Αίθριος 3000 ft
LGKL 200650Z 35006KT 8000 4000SE BR FEW030 09/07 Q1022
LGKR - Kerkyra
Ενημερώθηκε: 20-02-2019 08:50
Κυρίως Αίθριος  
Κυρίως Αίθριος  
   Άνεμος: Άπνοια
Άνεμος: Άπνοια
Θερμοκρασία: 6°C
Σημείο Δρόσου: 5°C
Υγρασία: 93%
Βαρόμετρο: 1022 hPa
Σύννεφα: Κυρίως Αίθριος
Ορατότητα: 9 km
Λεπτομέρειες Σύννεφου: Κυρίως Αίθριος 1000 ft
LGKR 200650Z 00000KT 9000 FEW010 06/05 Q1022 NOSIG
LGIO - Iwannina
Ενημερώθηκε: 20-02-2019 08:20
Συννεφιά  
Συννεφιά  
   Άνεμος: ποικίλλει Άπνοια
Άνεμος: ποικίλλει Άπνοια
Θερμοκρασία: 5°C
Σημείο Δρόσου: 5°C
Υγρασία: 100%
Βαρόμετρο: 1021 hPa
Σύννεφα: Συννεφιά
Ορατότητα: 6 km
Λεπτομέρειες Σύννεφου: Μερικώς Νεφελώδης 400 ft,
Κυρίως Συννεφιά 1800 ft,
Συννεφιά 6000 ft
LGIO 200620Z /////KT 6000 SCT004 BKN018 OVC060 05/05 Q1021
LGPZ - Leykada
Ενημερώθηκε: 20-02-2019 08:50
Κυρίως Αίθριος  
Κυρίως Αίθριος  
   Άνεμος: ΒΑ 11.1 km/h
Άνεμος: ΒΑ 11.1 km/h
Θερμοκρασία: 10°C
Δείκτης Ψυχρότητας: 8°C
Σημείο Δρόσου: 8°C
Υγρασία: 88%
Βαρόμετρο: 1023 hPa
Σύννεφα: Κυρίως Αίθριος
Ορατότητα: More than 10 km
Λεπτομέρειες Σύννεφου: Κυρίως Αίθριος 3000 ft
LGPZ 200650Z 04006KT 9999 FEW030 10/08 Q1023
LGEL - Elefsina
Ενημερώθηκε: 20-02-2019 08:50
Αίθριος  
Αίθριος  
   Άνεμος: ποικίλλει 5.6 km/h
Άνεμος: ποικίλλει 5.6 km/h
Θερμοκρασία: 11°C
Σημείο Δρόσου: 9°C
Υγρασία: 88%
Βαρόμετρο: 1020 hPa
Ορατότητα: More than 10 km
Λεπτομέρειες Σύννεφου: Αίθριος
LGEL 200650Z VRB03KT CAVOK 11/09 Q1020
LGKC - Kythira
Ενημερώθηκε: 19-02-2019 13:50
ΜΗ τρέχουσες
Κυρίως Αίθριος  
Κυρίως Αίθριος  
   Άνεμος: ΝΑ 11.1 km/h
Άνεμος: ΝΑ 11.1 km/h
Θερμοκρασία: 15°C
Σημείο Δρόσου: 9°C
Υγρασία: 68%
Βαρόμετρο: 1023 hPa
Σύννεφα: Κυρίως Αίθριος
Ορατότητα: More than 10 km
Λεπτομέρειες Σύννεφου: Κυρίως Αίθριος 3000 ft
LGKC 191150Z 14006KT 9999 FEW030 15/09 Q1023
LGIR - Hraklio
Ενημερώθηκε: 20-02-2019 08:50
Κυρίως Συννεφιά  
Κυρίως Συννεφιά  
   Άνεμος: Νότος 11.1 km/h
Άνεμος: Νότος 11.1 km/h
Θερμοκρασία: 11°C
Σημείο Δρόσου: 7°C
Υγρασία: 77%
Βαρόμετρο: 1021 hPa
Σύννεφα: Κυρίως Συννεφιά
Ορατότητα: More than 10 km
Λεπτομέρειες Σύννεφου: Κυρίως Αίθριος 2000 ft,
Κυρίως Συννεφιά 3000 ft
LGIR 200650Z 17006KT 9999 FEW020 BKN030 11/07 Q1021 NOSIG

Script developed by  Saratoga-weather.org Προσαρμοσμένος για το πρότυπο του  Weerstation Leuven

Μπορείτε να βρείτε πληροφορίες καιρού μας και σε:

European Weather Network

WeatherCloud

Weather Underground

Δύκτιο Σταθμών Ελλάδας

AWEKAS

HAMweather, WeatherForYou, PWS Weather

MeteoPatras.Eu